Weather at Hale County Airport

Public forecast

Using degrees Fahrenheit for public forecast. Weather courtesy of forecast.io.

Current aviation weather report (METAR) for Hale County Airport

Retrieved 2021/08/04 06:35 UTC (6 minutes ago):

KPVW 040635Z AUTO 14005KT 10SM CLR 16/12 A3017 RMK AO2 T01630115

Aviation forecast (TAF) for Hale County Airport

Retrieved 2021/08/04 06:39 UTC (2 minutes ago):

TAF KPVW 040537Z 0406/0506 10007KT P6SM FEW250